sensor_id;sensor_type;location;lat;lon;timestamp;temperature;humidity
12870;DHT22;6503;48.572;13.460;2023-02-15T00:01:05;0.20;99.90
12870;DHT22;6503;48.572;13.460;2023-02-15T00:03:33;0.10;99.90
12870;DHT22;6503;48.572;13.460;2023-02-15T00:06:02;0.10;99.90
12870;DHT22;6503;48.572;13.460;2023-02-15T00:08:31;0.10;99.90
12870;DHT22;6503;48.572;13.460;2023-02-15T00:11:05;0.10;99.90
12870;DHT22;6503;48.572;13.460;2023-02-15T00:13:34;0.20;99.90
12870;DHT22;6503;48.572;13.460;2023-02-15T00:16:08;0.10;99.90
12870;DHT22;6503;48.572;13.460;2023-02-15T00:18:36;0.20;99.90
12870;DHT22;6503;48.572;13.460;2023-02-15T00:21:08;0.20;99.90
12870;DHT22;6503;48.572;13.460;2023-02-15T00:23:36;0.10;99.90
12870;DHT22;6503;48.572;13.460;2023-02-15T00:26:04;0.10;99.90
12870;DHT22;6503;48.572;13.460;2023-02-15T00:28:33;0.10;99.90
12870;DHT22;6503;48.572;13.460;2023-02-15T00:31:08;0.10;99.90
12870;DHT22;6503;48.572;13.460;2023-02-15T00:33:35;0.20;99.90
12870;DHT22;6503;48.572;13.460;2023-02-15T00:36:04;0.10;99.90
12870;DHT22;6503;48.572;13.460;2023-02-15T00:38:32;0.00;99.90
12870;DHT22;6503;48.572;13.460;2023-02-15T00:41:03;0.10;99.90
12870;DHT22;6503;48.572;13.460;2023-02-15T00:43:34;0.00;99.90
12870;DHT22;6503;48.572;13.460;2023-02-15T00:46:03;-0.10;99.90
12870;DHT22;6503;48.572;13.460;2023-02-15T00:48:36;-0.10;99.90
12870;DHT22;6503;48.572;13.460;2023-02-15T00:51:14;-0.10;99.90
12870;DHT22;6503;48.572;13.460;2023-02-15T00:53:42;0.10;99.90
12870;DHT22;6503;48.572;13.460;2023-02-15T00:56:11;0.00;99.90
12870;DHT22;6503;48.572;13.460;2023-02-15T00:58:41;0.00;99.90
12870;DHT22;6503;48.572;13.460;2023-02-15T01:01:21;0.00;99.90
12870;DHT22;6503;48.572;13.460;2023-02-15T01:03:49;0.00;99.90
12870;DHT22;6503;48.572;13.460;2023-02-15T01:06:17;0.00;99.90
12870;DHT22;6503;48.572;13.460;2023-02-15T01:08:46;0.00;99.90
12870;DHT22;6503;48.572;13.460;2023-02-15T01:11:15;0.00;99.90
12870;DHT22;6503;48.572;13.460;2023-02-15T01:13:48;0.00;99.90
12870;DHT22;6503;48.572;13.460;2023-02-15T01:16:22;0.00;99.90
12870;DHT22;6503;48.572;13.460;2023-02-15T01:18:50;0.00;99.90
12870;DHT22;6503;48.572;13.460;2023-02-15T01:21:19;0.00;99.90
12870;DHT22;6503;48.572;13.460;2023-02-15T01:23:47;0.00;99.90
12870;DHT22;6503;48.572;13.460;2023-02-15T01:26:15;-0.10;99.90
12870;DHT22;6503;48.572;13.460;2023-02-15T01:28:42;0.00;99.90
12870;DHT22;6503;48.572;13.460;2023-02-15T01:31:11;-0.10;99.90
12870;DHT22;6503;48.572;13.460;2023-02-15T01:33:42;0.00;99.90
12870;DHT22;6503;48.572;13.460;2023-02-15T01:36:10;0.00;99.90
12870;DHT22;6503;48.572;13.460;2023-02-15T01:38:37;0.00;99.90
12870;DHT22;6503;48.572;13.460;2023-02-15T01:41:07;0.00;99.90
12870;DHT22;6503;48.572;13.460;2023-02-15T01:43:53;-0.10;99.90
12870;DHT22;6503;48.572;13.460;2023-02-15T01:46:26;-0.10;99.90
12870;DHT22;6503;48.572;13.460;2023-02-15T01:49:02;0.00;99.90
12870;DHT22;6503;48.572;13.460;2023-02-15T01:51:35;-0.10;99.90
12870;DHT22;6503;48.572;13.460;2023-02-15T01:54:07;0.00;99.90
12870;DHT22;6503;48.572;13.460;2023-02-15T01:56:40;-0.10;99.90
12870;DHT22;6503;48.572;13.460;2023-02-15T01:59:11;-0.10;99.90
12870;DHT22;6503;48.572;13.460;2023-02-15T02:01:41;-0.10;99.90
12870;DHT22;6503;48.572;13.460;2023-02-15T02:04:29;-0.10;99.90
12870;DHT22;6503;48.572;13.460;2023-02-15T02:06:58;-0.10;99.90
12870;DHT22;6503;48.572;13.460;2023-02-15T02:09:27;-0.10;99.90
12870;DHT22;6503;48.572;13.460;2023-02-15T02:11:59;-0.10;99.90
12870;DHT22;6503;48.572;13.460;2023-02-15T02:14:30;-0.10;99.90
12870;DHT22;6503;48.572;13.460;2023-02-15T02:17:07;-0.10;99.90
12870;DHT22;6503;48.572;13.460;2023-02-15T02:23:22;-0.30;99.90
12870;DHT22;6503;48.572;13.460;2023-02-15T02:26:18;-0.30;99.90
12870;DHT22;6503;48.572;13.460;2023-02-15T02:29:08;-0.30;99.90
12870;DHT22;6503;48.572;13.460;2023-02-15T02:31:56;-0.30;99.90
12870;DHT22;6503;48.572;13.460;2023-02-15T02:34:33;-0.20;99.90
12870;DHT22;6503;48.572;13.460;2023-02-15T02:37:11;-0.20;99.90
12870;DHT22;6503;48.572;13.460;2023-02-15T02:39:48;-0.20;99.90
12870;DHT22;6503;48.572;13.460;2023-02-15T02:42:34;-0.30;99.90
12870;DHT22;6503;48.572;13.460;2023-02-15T02:45:04;-0.20;99.90
12870;DHT22;6503;48.572;13.460;2023-02-15T02:47:38;-0.30;99.90
12870;DHT22;6503;48.572;13.460;2023-02-15T02:50:11;-0.30;99.90
12870;DHT22;6503;48.572;13.460;2023-02-15T02:52:42;-0.30;99.90
12870;DHT22;6503;48.572;13.460;2023-02-15T02:55:15;-0.40;99.90
12870;DHT22;6503;48.572;13.460;2023-02-15T02:57:52;-0.40;99.90
12870;DHT22;6503;48.572;13.460;2023-02-15T03:00:23;-0.40;99.90
12870;DHT22;6503;48.572;13.460;2023-02-15T03:02:57;-0.50;99.90
12870;DHT22;6503;48.572;13.460;2023-02-15T03:05:32;-0.50;99.90
12870;DHT22;6503;48.572;13.460;2023-02-15T03:08:03;-0.50;99.90
12870;DHT22;6503;48.572;13.460;2023-02-15T03:10:34;-0.50;99.90
12870;DHT22;6503;48.572;13.460;2023-02-15T03:13:02;-0.50;99.90
12870;DHT22;6503;48.572;13.460;2023-02-15T03:15:31;-0.60;99.90
12870;DHT22;6503;48.572;13.460;2023-02-15T03:18:12;-0.50;99.90
12870;DHT22;6503;48.572;13.460;2023-02-15T03:20:44;-0.40;99.90
12870;DHT22;6503;48.572;13.460;2023-02-15T03:23:12;-0.60;99.90
12870;DHT22;6503;48.572;13.460;2023-02-15T03:25:42;-0.50;99.90
12870;DHT22;6503;48.572;13.460;2023-02-15T03:28:17;-0.50;99.90
12870;DHT22;6503;48.572;13.460;2023-02-15T03:30:51;-0.50;99.90
12870;DHT22;6503;48.572;13.460;2023-02-15T03:33:21;-0.60;99.90
12870;DHT22;6503;48.572;13.460;2023-02-15T03:35:56;-0.50;99.90
12870;DHT22;6503;48.572;13.460;2023-02-15T03:38:34;-0.40;99.90
12870;DHT22;6503;48.572;13.460;2023-02-15T03:41:07;-0.50;99.90
12870;DHT22;6503;48.572;13.460;2023-02-15T03:43:45;-0.70;99.90
12870;DHT22;6503;48.572;13.460;2023-02-15T03:46:20;-0.70;99.90
12870;DHT22;6503;48.572;13.460;2023-02-15T03:48:53;-0.70;99.90
12870;DHT22;6503;48.572;13.460;2023-02-15T03:51:39;-0.70;99.90
12870;DHT22;6503;48.572;13.460;2023-02-15T03:54:09;-0.60;99.90
12870;DHT22;6503;48.572;13.460;2023-02-15T03:56:43;-0.70;99.90
12870;DHT22;6503;48.572;13.460;2023-02-15T03:59:30;-0.70;99.90
12870;DHT22;6503;48.572;13.460;2023-02-15T04:02:21;-0.60;99.90
12870;DHT22;6503;48.572;13.460;2023-02-15T04:04:49;-0.70;99.90
12870;DHT22;6503;48.572;13.460;2023-02-15T04:07:18;-0.70;99.90
12870;DHT22;6503;48.572;13.460;2023-02-15T04:09:50;-0.70;99.90
12870;DHT22;6503;48.572;13.460;2023-02-15T04:12:34;-0.70;99.90
12870;DHT22;6503;48.572;13.460;2023-02-15T04:15:02;-0.80;99.90
12870;DHT22;6503;48.572;13.460;2023-02-15T04:18:02;-0.70;99.90
12870;DHT22;6503;48.572;13.460;2023-02-15T04:20:30;-0.70;99.90
12870;DHT22;6503;48.572;13.460;2023-02-15T04:23:18;-0.80;99.90
12870;DHT22;6503;48.572;13.460;2023-02-15T04:26:05;-0.70;99.90
12870;DHT22;6503;48.572;13.460;2023-02-15T04:28:33;-0.90;99.90
12870;DHT22;6503;48.572;13.460;2023-02-15T04:31:00;-1.00;99.90
12870;DHT22;6503;48.572;13.460;2023-02-15T04:33:27;-0.90;99.90
12870;DHT22;6503;48.572;13.460;2023-02-15T04:35:54;-0.80;99.90
12870;DHT22;6503;48.572;13.460;2023-02-15T04:38:24;-0.80;99.90
12870;DHT22;6503;48.572;13.460;2023-02-15T04:40:51;-0.80;99.90
12870;DHT22;6503;48.572;13.460;2023-02-15T04:43:19;-0.90;99.90
12870;DHT22;6503;48.572;13.460;2023-02-15T04:45:48;-0.90;99.90
12870;DHT22;6503;48.572;13.460;2023-02-15T04:48:16;-0.90;99.90
12870;DHT22;6503;48.572;13.460;2023-02-15T04:50:44;-0.90;99.90
12870;DHT22;6503;48.572;13.460;2023-02-15T04:53:14;-0.80;99.90
12870;DHT22;6503;48.572;13.460;2023-02-15T04:55:47;-0.80;99.90
12870;DHT22;6503;48.572;13.460;2023-02-15T04:58:19;-0.80;99.90
12870;DHT22;6503;48.572;13.460;2023-02-15T05:00:46;-0.70;99.90
12870;DHT22;6503;48.572;13.460;2023-02-15T05:03:15;-0.70;99.90
12870;DHT22;6503;48.572;13.460;2023-02-15T05:05:44;-0.70;99.90
12870;DHT22;6503;48.572;13.460;2023-02-15T05:08:16;-0.70;99.90
12870;DHT22;6503;48.572;13.460;2023-02-15T05:10:45;-0.70;99.90
12870;DHT22;6503;48.572;13.460;2023-02-15T05:13:16;-0.70;99.90
12870;DHT22;6503;48.572;13.460;2023-02-15T05:15:47;-0.70;99.90
12870;DHT22;6503;48.572;13.460;2023-02-15T05:18:19;-0.70;99.90
12870;DHT22;6503;48.572;13.460;2023-02-15T05:20:49;-0.70;99.90
12870;DHT22;6503;48.572;13.460;2023-02-15T05:23:18;-0.80;99.90
12870;DHT22;6503;48.572;13.460;2023-02-15T05:25:49;-0.80;99.90
12870;DHT22;6503;48.572;13.460;2023-02-15T05:28:37;-0.80;99.90
12870;DHT22;6503;48.572;13.460;2023-02-15T05:31:10;-0.80;99.90
12870;DHT22;6503;48.572;13.460;2023-02-15T05:33:38;-0.70;99.90
12870;DHT22;6503;48.572;13.460;2023-02-15T05:36:06;-0.70;99.90
12870;DHT22;6503;48.572;13.460;2023-02-15T05:38:34;-0.70;99.90
12870;DHT22;6503;48.572;13.460;2023-02-15T05:41:03;-0.70;99.90
12870;DHT22;6503;48.572;13.460;2023-02-15T05:43:37;-0.70;99.90
12870;DHT22;6503;48.572;13.460;2023-02-15T05:46:12;-0.70;99.90
12870;DHT22;6503;48.572;13.460;2023-02-15T05:48:39;-0.70;99.90
12870;DHT22;6503;48.572;13.460;2023-02-15T05:51:11;-0.70;99.90
12870;DHT22;6503;48.572;13.460;2023-02-15T05:53:39;-0.80;99.90
12870;DHT22;6503;48.572;13.460;2023-02-15T05:56:10;-0.70;99.90
12870;DHT22;6503;48.572;13.460;2023-02-15T05:58:40;-0.80;99.90
12870;DHT22;6503;48.572;13.460;2023-02-15T06:01:13;-0.90;99.90
12870;DHT22;6503;48.572;13.460;2023-02-15T06:03:41;-0.90;99.90
12870;DHT22;6503;48.572;13.460;2023-02-15T06:06:10;-0.90;99.90
12870;DHT22;6503;48.572;13.460;2023-02-15T06:08:41;-0.80;99.90
12870;DHT22;6503;48.572;13.460;2023-02-15T06:11:08;-0.80;99.90
12870;DHT22;6503;48.572;13.460;2023-02-15T06:13:51;-0.80;99.90
12870;DHT22;6503;48.572;13.460;2023-02-15T06:16:27;-0.80;99.90
12870;DHT22;6503;48.572;13.460;2023-02-15T06:19:25;-0.80;99.90
12870;DHT22;6503;48.572;13.460;2023-02-15T06:22:32;-0.80;99.90
12870;DHT22;6503;48.572;13.460;2023-02-15T06:25:34;-0.80;99.90
12870;DHT22;6503;48.572;13.460;2023-02-15T06:28:15;-0.80;99.90
12870;DHT22;6503;48.572;13.460;2023-02-15T06:31:07;-0.70;99.90
12870;DHT22;6503;48.572;13.460;2023-02-15T06:33:48;-0.80;99.90
12870;DHT22;6503;48.572;13.460;2023-02-15T06:36:56;-0.80;99.90
12870;DHT22;6503;48.572;13.460;2023-02-15T06:43:04;-0.70;99.90
12870;DHT22;6503;48.572;13.460;2023-02-15T06:46:07;-0.80;99.90
12870;DHT22;6503;48.572;13.460;2023-02-15T06:48:39;-0.90;99.90
12870;DHT22;6503;48.572;13.460;2023-02-15T06:51:07;-0.90;99.90
12870;DHT22;6503;48.572;13.460;2023-02-15T06:53:37;-0.80;99.90
12870;DHT22;6503;48.572;13.460;2023-02-15T06:56:08;-0.80;99.90
12870;DHT22;6503;48.572;13.460;2023-02-15T07:01:57;-0.90;99.90
12870;DHT22;6503;48.572;13.460;2023-02-15T07:04:26;-0.80;99.90
12870;DHT22;6503;48.572;13.460;2023-02-15T07:06:56;-0.80;99.90
12870;DHT22;6503;48.572;13.460;2023-02-15T07:09:24;-0.80;99.90
12870;DHT22;6503;48.572;13.460;2023-02-15T07:11:52;-0.70;99.90
12870;DHT22;6503;48.572;13.460;2023-02-15T07:14:36;-0.70;99.90
12870;DHT22;6503;48.572;13.460;2023-02-15T07:17:07;-0.70;99.90
12870;DHT22;6503;48.572;13.460;2023-02-15T07:19:39;-0.70;99.90
12870;DHT22;6503;48.572;13.460;2023-02-15T07:22:06;-0.70;99.90
12870;DHT22;6503;48.572;13.460;2023-02-15T07:24:35;-0.80;99.90
12870;DHT22;6503;48.572;13.460;2023-02-15T07:43:44;-0.40;99.90
12870;DHT22;6503;48.572;13.460;2023-02-15T07:49:36;-0.40;99.90
12870;DHT22;6503;48.572;13.460;2023-02-15T07:55:40;-0.30;99.90
12870;DHT22;6503;48.572;13.460;2023-02-15T07:58:11;-0.30;99.90
12870;DHT22;6503;48.572;13.460;2023-02-15T08:00:55;-0.30;99.90
12870;DHT22;6503;48.572;13.460;2023-02-15T08:03:33;-0.30;99.90
12870;DHT22;6503;48.572;13.460;2023-02-15T08:06:06;-0.30;99.90
12870;DHT22;6503;48.572;13.460;2023-02-15T08:09:28;-0.30;99.90
12870;DHT22;6503;48.572;13.460;2023-02-15T08:11:38;-0.20;99.90
12870;DHT22;6503;48.572;13.460;2023-02-15T08:14:36;-0.20;99.90
12870;DHT22;6503;48.572;13.460;2023-02-15T08:23:46;-0.10;99.90
12870;DHT22;6503;48.572;13.460;2023-02-15T08:26:23;-0.10;99.90
12870;DHT22;6503;48.572;13.460;2023-02-15T08:29:34;0.00;99.90
12870;DHT22;6503;48.572;13.460;2023-02-15T08:35:47;-0.10;99.90
12870;DHT22;6503;48.572;13.460;2023-02-15T08:38:19;0.10;99.90
12870;DHT22;6503;48.572;13.460;2023-02-15T08:44:17;0.10;99.90
12870;DHT22;6503;48.572;13.460;2023-02-15T08:56:49;0.20;99.90
12870;DHT22;6503;48.572;13.460;2023-02-15T09:02:46;0.20;99.90
12870;DHT22;6503;48.572;13.460;2023-02-15T09:08:46;0.20;99.90
12870;DHT22;6503;48.572;13.460;2023-02-15T09:11:47;0.20;99.90
12870;DHT22;6503;48.572;13.460;2023-02-15T09:14:21;0.30;99.90
12870;DHT22;6503;48.572;13.460;2023-02-15T09:16:53;0.40;99.90
12870;DHT22;6503;48.572;13.460;2023-02-15T09:19:38;0.40;99.90
12870;DHT22;6503;48.572;13.460;2023-02-15T09:22:08;0.40;99.90
12870;DHT22;6503;48.572;13.460;2023-02-15T09:24:36;0.40;99.90
12870;DHT22;6503;48.572;13.460;2023-02-15T09:27:17;0.40;99.90
12870;DHT22;6503;48.572;13.460;2023-02-15T09:29:50;0.50;99.90
12870;DHT22;6503;48.572;13.460;2023-02-15T09:39:08;0.60;99.90
12870;DHT22;6503;48.572;13.460;2023-02-15T09:48:38;0.70;99.90
12870;DHT22;6503;48.572;13.460;2023-02-15T09:51:27;0.60;99.90
12870;DHT22;6503;48.572;13.460;2023-02-15T10:04:39;0.80;99.90
12870;DHT22;6503;48.572;13.460;2023-02-15T10:07:27;0.80;99.90
12870;DHT22;6503;48.572;13.460;2023-02-15T10:10:14;0.80;99.90
12870;DHT22;6503;48.572;13.460;2023-02-15T10:13:12;0.90;99.90
12870;DHT22;6503;48.572;13.460;2023-02-15T10:15:57;0.90;99.90
12870;DHT22;6503;48.572;13.460;2023-02-15T10:21:33;1.00;99.90
12870;DHT22;6503;48.572;13.460;2023-02-15T10:24:34;1.00;99.90
12870;DHT22;6503;48.572;13.460;2023-02-15T10:27:18;1.00;99.90
12870;DHT22;6503;48.572;13.460;2023-02-15T10:34:06;0.90;99.90
12870;DHT22;6503;48.572;13.460;2023-02-15T10:36:28;1.00;99.90
12870;DHT22;6503;48.572;13.460;2023-02-15T10:39:37;1.10;99.90
12870;DHT22;6503;48.572;13.460;2023-02-15T10:45:51;1.20;99.90
12870;DHT22;6503;48.572;13.460;2023-02-15T10:48:58;1.30;99.90
12870;DHT22;6503;48.572;13.460;2023-02-15T10:55:06;1.30;99.90
12870;DHT22;6503;48.572;13.460;2023-02-15T10:57:49;1.40;99.90
12870;DHT22;6503;48.572;13.460;2023-02-15T11:31:21;1.90;99.90
12870;DHT22;6503;48.572;13.460;2023-02-15T11:33:55;1.80;99.90
12870;DHT22;6503;48.572;13.460;2023-02-15T11:40:17;1.70;99.90
12870;DHT22;6503;48.572;13.460;2023-02-15T11:42:56;1.80;99.90
12870;DHT22;6503;48.572;13.460;2023-02-15T12:03:21;1.90;99.90
12870;DHT22;6503;48.572;13.460;2023-02-15T12:06:29;2.10;99.90
12870;DHT22;6503;48.572;13.460;2023-02-15T12:09:20;2.10;99.90
12870;DHT22;6503;48.572;13.460;2023-02-15T12:12:25;1.80;99.90
12870;DHT22;6503;48.572;13.460;2023-02-15T12:15:04;1.70;99.90
12870;DHT22;6503;48.572;13.460;2023-02-15T12:21:04;1.50;99.90
12870;DHT22;6503;48.572;13.460;2023-02-15T12:24:18;1.40;99.90
12870;DHT22;6503;48.572;13.460;2023-02-15T12:27:03;1.50;99.90
12870;DHT22;6503;48.572;13.460;2023-02-15T12:30:07;1.70;99.90
12870;DHT22;6503;48.572;13.460;2023-02-15T12:33:17;1.90;99.90
12870;DHT22;6503;48.572;13.460;2023-02-15T12:39:21;2.00;99.90
12870;DHT22;6503;48.572;13.460;2023-02-15T12:42:00;2.10;99.90
12870;DHT22;6503;48.572;13.460;2023-02-15T12:44:59;2.20;99.90
12870;DHT22;6503;48.572;13.460;2023-02-15T12:48:15;2.10;99.90
12870;DHT22;6503;48.572;13.460;2023-02-15T12:53:51;2.10;99.90
12870;DHT22;6503;48.572;13.460;2023-02-15T12:56:55;2.10;99.90
12870;DHT22;6503;48.572;13.460;2023-02-15T13:06:02;1.90;99.90
12870;DHT22;6503;48.572;13.460;2023-02-15T13:08:37;2.10;99.90
12870;DHT22;6503;48.572;13.460;2023-02-15T13:11:07;2.10;99.90
12870;DHT22;6503;48.572;13.460;2023-02-15T13:13:47;2.10;99.90
12870;DHT22;6503;48.572;13.460;2023-02-15T13:16:21;2.10;99.90
12870;DHT22;6503;48.572;13.460;2023-02-15T13:18:52;2.10;99.90
12870;DHT22;6503;48.572;13.460;2023-02-15T13:21:25;2.10;99.90
12870;DHT22;6503;48.572;13.460;2023-02-15T13:23:58;2.20;99.90
12870;DHT22;6503;48.572;13.460;2023-02-15T13:26:31;2.30;99.90
12870;DHT22;6503;48.572;13.460;2023-02-15T13:29:04;2.30;99.90
12870;DHT22;6503;48.572;13.460;2023-02-15T13:31:35;2.20;99.90
12870;DHT22;6503;48.572;13.460;2023-02-15T13:34:09;2.20;99.90
12870;DHT22;6503;48.572;13.460;2023-02-15T13:36:47;2.30;99.90
12870;DHT22;6503;48.572;13.460;2023-02-15T13:39:23;2.30;99.90
12870;DHT22;6503;48.572;13.460;2023-02-15T13:41:56;2.10;99.90
12870;DHT22;6503;48.572;13.460;2023-02-15T13:44:36;2.00;99.90
12870;DHT22;6503;48.572;13.460;2023-02-15T13:47:17;2.00;99.90
12870;DHT22;6503;48.572;13.460;2023-02-15T13:50:02;2.10;99.90
12870;DHT22;6503;48.572;13.460;2023-02-15T13:52:39;2.10;99.90
12870;DHT22;6503;48.572;13.460;2023-02-15T13:55:31;2.10;99.90
12870;DHT22;6503;48.572;13.460;2023-02-15T14:00:59;2.10;99.90
12870;DHT22;6503;48.572;13.460;2023-02-15T14:03:52;2.10;99.90
12870;DHT22;6503;48.572;13.460;2023-02-15T14:06:37;2.20;99.90
12870;DHT22;6503;48.572;13.460;2023-02-15T14:09:15;2.20;99.90
12870;DHT22;6503;48.572;13.460;2023-02-15T14:11:51;2.30;99.90
12870;DHT22;6503;48.572;13.460;2023-02-15T14:14:36;2.40;99.90
12870;DHT22;6503;48.572;13.460;2023-02-15T14:17:12;2.40;99.90
12870;DHT22;6503;48.572;13.460;2023-02-15T14:19:46;2.40;99.90
12870;DHT22;6503;48.572;13.460;2023-02-15T14:22:22;2.20;99.90
12870;DHT22;6503;48.572;13.460;2023-02-15T14:25:05;2.20;99.90
12870;DHT22;6503;48.572;13.460;2023-02-15T14:27:48;2.30;99.90
12870;DHT22;6503;48.572;13.460;2023-02-15T14:30:20;2.30;99.90
12870;DHT22;6503;48.572;13.460;2023-02-15T14:32:50;2.30;99.90
12870;DHT22;6503;48.572;13.460;2023-02-15T14:35:21;2.30;99.90
12870;DHT22;6503;48.572;13.460;2023-02-15T14:37:52;2.30;99.90
12870;DHT22;6503;48.572;13.460;2023-02-15T14:40:32;2.30;99.90
12870;DHT22;6503;48.572;13.460;2023-02-15T14:43:25;2.30;99.90
12870;DHT22;6503;48.572;13.460;2023-02-15T14:46:00;2.30;99.90
12870;DHT22;6503;48.572;13.460;2023-02-15T14:48:32;2.20;99.90
12870;DHT22;6503;48.572;13.460;2023-02-15T14:51:00;2.10;99.90
12870;DHT22;6503;48.572;13.460;2023-02-15T14:53:37;2.10;99.90
12870;DHT22;6503;48.572;13.460;2023-02-15T14:56:30;1.70;99.90
12870;DHT22;6503;48.572;13.460;2023-02-15T14:59:14;1.60;99.90
12870;DHT22;6503;48.572;13.460;2023-02-15T15:01:52;1.70;99.90
12870;DHT22;6503;48.572;13.460;2023-02-15T15:04:27;1.70;99.90
12870;DHT22;6503;48.572;13.460;2023-02-15T15:07:02;1.60;99.90
12870;DHT22;6503;48.572;13.460;2023-02-15T15:09:33;1.60;99.90
12870;DHT22;6503;48.572;13.460;2023-02-15T15:15:15;1.80;99.90
12870;DHT22;6503;48.572;13.460;2023-02-15T15:18:00;1.90;99.90
12870;DHT22;6503;48.572;13.460;2023-02-15T15:20:45;1.90;99.90
12870;DHT22;6503;48.572;13.460;2023-02-15T15:23:36;1.90;99.90
12870;DHT22;6503;48.572;13.460;2023-02-15T15:26:21;1.90;99.90
12870;DHT22;6503;48.572;13.460;2023-02-15T15:28:59;1.80;99.90
12870;DHT22;6503;48.572;13.460;2023-02-15T15:31:36;1.90;99.90
12870;DHT22;6503;48.572;13.460;2023-02-15T15:34:17;1.80;99.90
12870;DHT22;6503;48.572;13.460;2023-02-15T15:40:36;1.80;99.90
12870;DHT22;6503;48.572;13.460;2023-02-15T15:43:42;1.80;99.90
12870;DHT22;6503;48.572;13.460;2023-02-15T15:46:31;1.80;99.90
12870;DHT22;6503;48.572;13.460;2023-02-15T15:49:07;1.80;99.90
12870;DHT22;6503;48.572;13.460;2023-02-15T15:51:40;1.80;99.90
12870;DHT22;6503;48.572;13.460;2023-02-15T15:54:15;1.80;99.90
12870;DHT22;6503;48.572;13.460;2023-02-15T15:56:46;1.70;99.90
12870;DHT22;6503;48.572;13.460;2023-02-15T15:59:18;1.70;99.90
12870;DHT22;6503;48.572;13.460;2023-02-15T16:01:47;1.70;99.90
12870;DHT22;6503;48.572;13.460;2023-02-15T16:04:23;1.80;99.90
12870;DHT22;6503;48.572;13.460;2023-02-15T16:06:53;1.80;99.90
12870;DHT22;6503;48.572;13.460;2023-02-15T16:09:22;1.70;99.90
12870;DHT22;6503;48.572;13.460;2023-02-15T16:11:51;1.70;99.90
12870;DHT22;6503;48.572;13.460;2023-02-15T16:14:26;1.70;99.90
12870;DHT22;6503;48.572;13.460;2023-02-15T16:16:59;1.70;99.90
12870;DHT22;6503;48.572;13.460;2023-02-15T16:19:29;1.70;99.90
12870;DHT22;6503;48.572;13.460;2023-02-15T16:22:03;1.60;99.90
12870;DHT22;6503;48.572;13.460;2023-02-15T16:24:39;1.60;99.90
12870;DHT22;6503;48.572;13.460;2023-02-15T16:30:27;1.50;99.90
12870;DHT22;6503;48.572;13.460;2023-02-15T16:33:05;1.50;99.90
12870;DHT22;6503;48.572;13.460;2023-02-15T16:35:33;1.50;99.90
12870;DHT22;6503;48.572;13.460;2023-02-15T16:38:09;1.40;99.90
12870;DHT22;6503;48.572;13.460;2023-02-15T16:40:41;1.40;99.90
12870;DHT22;6503;48.572;13.460;2023-02-15T16:43:15;1.40;99.90
12870;DHT22;6503;48.572;13.460;2023-02-15T16:45:43;1.40;99.90
12870;DHT22;6503;48.572;13.460;2023-02-15T16:48:17;1.30;99.90
12870;DHT22;6503;48.572;13.460;2023-02-15T16:50:49;1.30;99.90
12870;DHT22;6503;48.572;13.460;2023-02-15T16:53:21;1.30;99.90
12870;DHT22;6503;48.572;13.460;2023-02-15T16:55:52;1.40;99.90
12870;DHT22;6503;48.572;13.460;2023-02-15T16:58:32;1.50;99.90
12870;DHT22;6503;48.572;13.460;2023-02-15T17:01:03;1.40;99.90
12870;DHT22;6503;48.572;13.460;2023-02-15T17:03:36;1.30;99.90
12870;DHT22;6503;48.572;13.460;2023-02-15T17:06:19;1.30;99.90
12870;DHT22;6503;48.572;13.460;2023-02-15T17:08:46;1.30;99.90
12870;DHT22;6503;48.572;13.460;2023-02-15T17:11:18;1.30;99.90
12870;DHT22;6503;48.572;13.460;2023-02-15T17:14:19;1.40;99.90
12870;DHT22;6503;48.572;13.460;2023-02-15T17:16:50;1.40;99.90
12870;DHT22;6503;48.572;13.460;2023-02-15T17:19:23;1.40;99.90
12870;DHT22;6503;48.572;13.460;2023-02-15T17:21:53;1.40;99.90
12870;DHT22;6503;48.572;13.460;2023-02-15T17:24:28;1.40;99.90
12870;DHT22;6503;48.572;13.460;2023-02-15T17:27:02;1.30;99.90
12870;DHT22;6503;48.572;13.460;2023-02-15T17:29:36;1.30;99.90
12870;DHT22;6503;48.572;13.460;2023-02-15T17:32:05;1.30;99.90
12870;DHT22;6503;48.572;13.460;2023-02-15T17:34:49;1.20;99.90
12870;DHT22;6503;48.572;13.460;2023-02-15T17:37:26;1.10;99.90
12870;DHT22;6503;48.572;13.460;2023-02-15T17:39:54;1.00;99.90
12870;DHT22;6503;48.572;13.460;2023-02-15T17:42:21;1.00;99.90
12870;DHT22;6503;48.572;13.460;2023-02-15T17:44:49;1.10;99.90
12870;DHT22;6503;48.572;13.460;2023-02-15T17:47:17;0.90;99.90
12870;DHT22;6503;48.572;13.460;2023-02-15T17:49:47;0.80;99.90
12870;DHT22;6503;48.572;13.460;2023-02-15T17:52:15;0.90;99.90
12870;DHT22;6503;48.572;13.460;2023-02-15T17:54:42;0.90;99.90
12870;DHT22;6503;48.572;13.460;2023-02-15T17:57:28;1.00;99.90
12870;DHT22;6503;48.572;13.460;2023-02-15T17:59:55;1.10;99.90
12870;DHT22;6503;48.572;13.460;2023-02-15T18:02:39;1.10;99.90
12870;DHT22;6503;48.572;13.460;2023-02-15T18:05:25;1.10;99.90
12870;DHT22;6503;48.572;13.460;2023-02-15T18:08:12;1.10;99.90
12870;DHT22;6503;48.572;13.460;2023-02-15T18:10:56;1.10;99.90
12870;DHT22;6503;48.572;13.460;2023-02-15T18:13:41;1.10;99.90
12870;DHT22;6503;48.572;13.460;2023-02-15T18:16:12;1.10;99.90
12870;DHT22;6503;48.572;13.460;2023-02-15T18:18:40;1.10;99.90
12870;DHT22;6503;48.572;13.460;2023-02-15T18:21:10;1.10;99.90
12870;DHT22;6503;48.572;13.460;2023-02-15T18:23:38;1.10;99.90
12870;DHT22;6503;48.572;13.460;2023-02-15T18:26:05;1.10;99.90
12870;DHT22;6503;48.572;13.460;2023-02-15T18:28:33;1.10;99.90
12870;DHT22;6503;48.572;13.460;2023-02-15T18:31:01;1.10;99.90
12870;DHT22;6503;48.572;13.460;2023-02-15T18:33:33;1.00;99.90
12870;DHT22;6503;48.572;13.460;2023-02-15T18:36:02;1.10;99.90
12870;DHT22;6503;48.572;13.460;2023-02-15T18:38:32;1.00;99.90
12870;DHT22;6503;48.572;13.460;2023-02-15T18:41:00;1.10;99.90
12870;DHT22;6503;48.572;13.460;2023-02-15T18:43:27;1.00;99.90
12870;DHT22;6503;48.572;13.460;2023-02-15T18:45:54;0.90;99.90
12870;DHT22;6503;48.572;13.460;2023-02-15T18:48:21;0.90;99.90
12870;DHT22;6503;48.572;13.460;2023-02-15T18:50:50;0.90;99.90
12870;DHT22;6503;48.572;13.460;2023-02-15T18:53:18;0.90;99.90
12870;DHT22;6503;48.572;13.460;2023-02-15T18:55:47;0.90;99.90
12870;DHT22;6503;48.572;13.460;2023-02-15T18:58:17;1.00;99.90
12870;DHT22;6503;48.572;13.460;2023-02-15T19:00:44;0.90;99.90
12870;DHT22;6503;48.572;13.460;2023-02-15T19:03:13;0.90;99.90
12870;DHT22;6503;48.572;13.460;2023-02-15T19:05:43;1.00;99.90
12870;DHT22;6503;48.572;13.460;2023-02-15T19:08:17;0.90;99.90
12870;DHT22;6503;48.572;13.460;2023-02-15T19:10:49;0.90;99.90
12870;DHT22;6503;48.572;13.460;2023-02-15T19:13:17;0.90;99.90
12870;DHT22;6503;48.572;13.460;2023-02-15T19:15:44;0.90;99.90
12870;DHT22;6503;48.572;13.460;2023-02-15T19:18:11;0.90;99.90
12870;DHT22;6503;48.572;13.460;2023-02-15T19:20:40;0.90;99.90
12870;DHT22;6503;48.572;13.460;2023-02-15T19:23:14;0.80;99.90
12870;DHT22;6503;48.572;13.460;2023-02-15T19:25:44;0.80;99.90
12870;DHT22;6503;48.572;13.460;2023-02-15T19:28:17;0.80;99.90
12870;DHT22;6503;48.572;13.460;2023-02-15T19:30:45;0.80;99.90
12870;DHT22;6503;48.572;13.460;2023-02-15T19:33:19;0.80;99.90
12870;DHT22;6503;48.572;13.460;2023-02-15T19:35:51;0.80;99.90
12870;DHT22;6503;48.572;13.460;2023-02-15T19:38:22;0.80;99.90